To NAV CANADA Home Page Login to a new session Search on AWWS site Feedback and Comments Disclaimer Vers la page française équivalente Tips FAQ What's new on the site To the Forecasts and Observations / NOTAM section To "File a Flight Plan" website Publications and other links Update of the User's profile FIC Telephone Numbers My Weather Data Folder Route Weather Data Regional Weather Data Local Weather Data To the Forecasts and Observations / NOTAM section
Request Generated 10/17/2017 at 01:46:13 UTC . Weather information available at that time is displayed.

METAR/TAF

BRANDON MUNICIPALITY/MB    

METAR CYBR 170100Z 26009KT 15SM SCT250 10/01 A2984 RMK CI4 SLP124=
METAR CYBR 170000Z 25011KT 15SM BKN250 11/01 A2982 RMK CI5 SLP119
DENSITY ALT 1400FT=
METAR CYBR 162300Z 25008KT 15SM BKN250 16/02 A2981 RMK CI7 SLP115
DENSITY ALT 1900FT=

TAF CYBR 162338Z 1700/1712 25008KT P6SM FEW250
BECMG 1701/1703 25006KT
RMK NXT FCST BY 170600Z=
Your time UTC time
Weather data provided by Environment Canada and NAV CANADA